createdAt,value
2022-09-15T00:01:41.951Z,16.50
2022-09-15T00:04:10.655Z,16.50
2022-09-15T00:06:39.506Z,16.50
2022-09-15T00:09:08.347Z,16.50
2022-09-15T00:11:38.391Z,16.50
2022-09-15T00:14:09.805Z,16.50
2022-09-15T00:16:38.891Z,16.50
2022-09-15T00:19:07.667Z,16.50
2022-09-15T00:21:38.521Z,16.50
2022-09-15T00:24:08.045Z,16.50
2022-09-15T00:26:37.360Z,16.50
2022-09-15T00:29:06.531Z,16.50
2022-09-15T00:31:36.447Z,16.50
2022-09-15T00:34:07.206Z,16.50
2022-09-15T00:36:35.982Z,16.50
2022-09-15T00:39:05.136Z,16.60
2022-09-15T00:41:34.110Z,16.60
2022-09-15T00:44:05.156Z,16.60
2022-09-15T00:46:37.097Z,16.60
2022-09-15T00:49:10.745Z,16.60
2022-09-15T00:51:44.172Z,16.50
2022-09-15T00:54:18.643Z,16.50
2022-09-15T00:56:50.509Z,16.50
2022-09-15T00:59:22.318Z,16.50
2022-09-15T01:01:59.636Z,16.60
2022-09-15T01:04:28.645Z,16.60
2022-09-15T01:07:00.547Z,16.60
2022-09-15T01:09:32.652Z,16.60
2022-09-15T01:12:02.346Z,16.60
2022-09-15T01:14:31.493Z,16.60
2022-09-15T01:17:06.957Z,16.60
2022-09-15T01:19:59.422Z,16.60
2022-09-15T01:22:37.639Z,16.60
2022-09-15T01:25:11.290Z,16.60
2022-09-15T01:28:12.422Z,16.60
2022-09-15T01:30:49.099Z,16.60
2022-09-15T01:33:26.896Z,16.60
2022-09-15T01:36:06.044Z,16.60
2022-09-15T01:38:43.041Z,16.60
2022-09-15T01:41:16.901Z,16.60
2022-09-15T01:43:52.091Z,16.60
2022-09-15T01:46:27.679Z,16.50
2022-09-15T01:48:57.983Z,16.50
2022-09-15T01:51:29.370Z,16.60
2022-09-15T01:54:00.740Z,16.60
2022-09-15T01:56:29.626Z,16.60
2022-09-15T01:58:58.500Z,16.50
2022-09-15T02:01:42.181Z,16.50
2022-09-15T02:04:16.020Z,16.50
2022-09-15T02:06:53.335Z,16.60
2022-09-15T02:09:26.385Z,16.50
2022-09-15T02:12:02.541Z,16.50
2022-09-15T02:14:43.147Z,16.50
2022-09-15T02:17:17.294Z,16.50
2022-09-15T02:19:50.855Z,16.60
2022-09-15T02:22:24.832Z,16.50
2022-09-15T02:24:59.014Z,16.50
2022-09-15T02:27:32.081Z,16.50
2022-09-15T02:30:06.065Z,16.50
2022-09-15T02:32:40.841Z,16.50
2022-09-15T02:35:11.869Z,16.50
2022-09-15T02:37:40.635Z,16.50
2022-09-15T02:40:10.266Z,16.50
2022-09-15T02:42:39.198Z,16.60
2022-09-15T02:45:08.954Z,16.60
2022-09-15T02:47:38.905Z,16.60
2022-09-15T02:50:08.665Z,16.60
2022-09-15T02:52:37.346Z,16.60
2022-09-15T02:55:06.689Z,16.60
2022-09-15T02:57:35.338Z,16.60
2022-09-15T03:00:14.568Z,16.60
2022-09-15T03:02:47.024Z,16.60
2022-09-15T03:05:17.968Z,16.60
2022-09-15T03:07:46.617Z,16.60
2022-09-15T03:10:16.093Z,16.60
2022-09-15T03:12:48.318Z,16.60
2022-09-15T03:15:18.850Z,16.60
2022-09-15T03:17:49.193Z,16.60
2022-09-15T03:20:20.789Z,16.60
2022-09-15T03:22:49.968Z,16.70
2022-09-15T03:25:19.109Z,16.70
2022-09-15T03:27:48.246Z,16.60
2022-09-15T03:30:18.095Z,16.60
2022-09-15T03:32:48.727Z,16.60
2022-09-15T03:35:17.452Z,16.60
2022-09-15T03:37:46.063Z,16.60
2022-09-15T03:40:14.924Z,16.60
2022-09-15T03:42:43.588Z,16.60
2022-09-15T03:45:12.208Z,16.60
2022-09-15T03:47:40.811Z,16.70
2022-09-15T03:50:11.047Z,16.70
2022-09-15T03:52:39.750Z,16.60
2022-09-15T03:55:09.124Z,16.70
2022-09-15T03:57:37.757Z,16.70
2022-09-15T04:00:08.146Z,16.60
2022-09-15T04:02:36.801Z,16.70
2022-09-15T04:05:06.028Z,16.70
2022-09-15T04:07:36.341Z,16.70
2022-09-15T04:10:05.425Z,16.70
2022-09-15T04:12:34.487Z,16.70
2022-09-15T04:15:04.031Z,16.70
2022-09-15T04:17:32.642Z,16.70
2022-09-15T04:20:01.269Z,16.70
2022-09-15T04:22:31.982Z,16.60
2022-09-15T04:25:01.954Z,16.60
2022-09-15T04:27:34.277Z,16.60
2022-09-15T04:30:03.118Z,16.60
2022-09-15T04:32:32.349Z,16.60
2022-09-15T04:35:00.930Z,16.60
2022-09-15T04:37:29.601Z,16.60
2022-09-15T04:39:58.406Z,16.60
2022-09-15T04:42:28.793Z,16.60
2022-09-15T04:44:57.453Z,16.60
2022-09-15T04:47:26.101Z,16.60
2022-09-15T04:49:54.690Z,16.60
2022-09-15T04:52:23.342Z,16.60
2022-09-15T04:54:52.165Z,16.50
2022-09-15T04:57:20.743Z,16.60
2022-09-15T04:59:50.720Z,16.60
2022-09-15T05:02:19.465Z,16.60
2022-09-15T05:04:49.378Z,16.60
2022-09-15T05:07:18.015Z,16.50
2022-09-15T05:09:46.596Z,16.50
2022-09-15T05:12:15.217Z,16.50
2022-09-15T05:14:44.085Z,16.50
2022-09-15T05:17:14.093Z,16.50
2022-09-15T05:19:42.720Z,16.50
2022-09-15T05:22:11.464Z,16.50
2022-09-15T05:24:40.052Z,16.50
2022-09-15T05:27:08.625Z,16.50
2022-09-15T05:29:37.301Z,16.50
2022-09-15T05:32:06.082Z,16.50
2022-09-15T05:34:36.083Z,16.50
2022-09-15T05:37:05.293Z,16.50
2022-09-15T05:39:33.947Z,16.50
2022-09-15T05:42:02.627Z,16.50
2022-09-15T05:44:31.571Z,16.50
2022-09-15T05:47:00.306Z,16.50
2022-09-15T05:49:29.427Z,16.60
2022-09-15T05:51:59.427Z,16.60
2022-09-15T05:54:28.426Z,16.60
2022-09-15T05:56:57.055Z,16.70
2022-09-15T05:59:25.748Z,16.60
2022-09-15T06:01:54.386Z,16.60
2022-09-15T06:04:23.261Z,16.60
2022-09-15T06:06:51.813Z,16.60
2022-09-15T06:09:21.906Z,16.60
2022-09-15T06:11:50.484Z,16.60
2022-09-15T06:14:19.080Z,16.60
2022-09-15T06:16:47.662Z,16.60
2022-09-15T06:19:16.292Z,16.60
2022-09-15T06:21:44.864Z,16.60
2022-09-15T06:24:13.921Z,16.60
2022-09-15T06:26:43.962Z,16.50
2022-09-15T06:29:13.805Z,16.60
2022-09-15T06:31:42.477Z,16.60
2022-09-15T06:34:11.405Z,16.60
2022-09-15T06:36:40.403Z,16.60
2022-09-15T06:39:09.814Z,16.60
2022-09-15T06:41:58.854Z,16.60
2022-09-15T06:44:31.692Z,16.60
2022-09-15T06:47:00.307Z,16.70
2022-09-15T06:49:29.086Z,16.70
2022-09-15T06:51:57.773Z,16.60
2022-09-15T06:54:26.440Z,16.60
2022-09-15T06:56:55.042Z,16.60
2022-09-15T06:59:24.604Z,16.60
2022-09-15T07:01:55.535Z,16.50
2022-09-15T07:04:24.210Z,16.50
2022-09-15T07:06:52.837Z,16.40
2022-09-15T07:09:21.455Z,16.40
2022-09-15T07:11:50.114Z,16.40
2022-09-15T07:14:18.726Z,16.40
2022-09-15T07:16:47.370Z,16.40
2022-09-15T07:19:17.415Z,16.50
2022-09-15T07:21:46.042Z,16.40
2022-09-15T07:24:15.007Z,16.40
2022-09-15T07:26:43.643Z,16.40
2022-09-15T07:29:12.291Z,16.50
2022-09-15T07:31:41.063Z,16.50
2022-09-15T07:34:09.753Z,16.50
2022-09-15T07:36:39.830Z,16.50
2022-09-15T07:39:08.577Z,16.50
2022-09-15T07:41:37.164Z,16.50
2022-09-15T07:44:09.107Z,16.50
2022-09-15T07:46:37.745Z,16.50
2022-09-15T07:49:08.211Z,16.50
2022-09-15T07:51:36.882Z,16.50
2022-09-15T07:54:07.233Z,16.50
2022-09-15T07:56:35.841Z,16.60
2022-09-15T07:59:04.471Z,16.60
2022-09-15T08:01:33.107Z,16.60
2022-09-15T08:04:01.822Z,16.70
2022-09-15T08:06:30.497Z,16.60
2022-09-15T08:09:00.678Z,16.70
2022-09-15T08:11:30.986Z,16.70
2022-09-15T08:14:02.420Z,16.70
2022-09-15T08:16:31.314Z,16.70
2022-09-15T08:19:00.295Z,16.70
2022-09-15T08:21:29.362Z,16.70
2022-09-15T08:23:59.685Z,16.70
2022-09-15T08:26:30.990Z,16.80
2022-09-15T08:29:00.647Z,16.80
2022-09-15T08:31:29.580Z,16.80
2022-09-15T08:33:58.318Z,16.80
2022-09-15T08:36:28.271Z,16.80
2022-09-15T08:38:57.315Z,16.80
2022-09-15T08:41:30.321Z,16.80
2022-09-15T08:44:05.626Z,16.70
2022-09-15T08:46:40.408Z,16.70
2022-09-15T08:49:14.570Z,16.70
2022-09-15T08:51:47.211Z,16.60
2022-09-15T08:54:21.199Z,16.60
2022-09-15T08:56:50.168Z,16.50
2022-09-15T08:59:21.617Z,16.50
2022-09-15T09:02:03.453Z,16.50
2022-09-15T09:04:49.596Z,16.50
2022-09-15T09:07:30.462Z,16.50
2022-09-15T09:10:06.983Z,16.40
2022-09-15T09:12:50.821Z,16.40
2022-09-15T09:15:43.761Z,16.30
2022-09-15T09:18:29.917Z,16.30
2022-09-15T09:21:04.623Z,16.30
2022-09-15T09:23:36.821Z,16.30
2022-09-15T09:26:10.345Z,16.30
2022-09-15T09:28:42.738Z,16.30
2022-09-15T09:31:20.024Z,16.30
2022-09-15T09:33:54.899Z,16.30
2022-09-15T09:36:23.807Z,16.30
2022-09-15T09:38:52.677Z,16.40
2022-09-15T09:41:25.467Z,16.40
2022-09-15T09:43:56.712Z,16.40
2022-09-15T09:46:26.718Z,16.30
2022-09-15T09:49:01.945Z,16.30
2022-09-15T09:51:32.848Z,16.40
2022-09-15T09:54:16.136Z,16.30
2022-09-15T09:56:45.582Z,16.30
2022-09-15T09:59:39.728Z,16.30
2022-09-15T10:02:18.956Z,16.30
2022-09-15T10:04:49.121Z,16.30
2022-09-15T10:07:20.025Z,16.20
2022-09-15T10:09:54.526Z,16.20
2022-09-15T10:12:26.924Z,16.20
2022-09-15T10:14:57.898Z,16.20
2022-09-15T10:17:39.328Z,16.10
2022-09-15T10:20:24.470Z,16.10
2022-09-15T10:22:53.580Z,16.10
2022-09-15T10:25:49.640Z,16.00
2022-09-15T10:28:25.816Z,16.00
2022-09-15T10:31:03.354Z,16.00
2022-09-15T10:33:35.294Z,16.00
2022-09-15T10:36:07.286Z,16.00
2022-09-15T10:38:42.076Z,16.00
2022-09-15T10:41:21.764Z,16.00
2022-09-15T10:44:24.097Z,16.00
2022-09-15T10:47:04.097Z,16.00
2022-09-15T10:49:49.800Z,16.00
2022-09-15T10:52:27.998Z,16.00
2022-09-15T10:55:10.292Z,16.00
2022-09-15T10:57:54.524Z,15.90
2022-09-15T11:00:24.328Z,15.90
2022-09-15T11:03:26.485Z,15.90
2022-09-15T11:06:07.366Z,15.90
2022-09-15T11:09:04.538Z,15.90
2022-09-15T11:11:43.700Z,15.90
2022-09-15T11:14:30.665Z,15.90
2022-09-15T11:17:11.133Z,15.90
2022-09-15T11:19:55.682Z,15.90
2022-09-15T11:22:30.152Z,15.90
2022-09-15T11:25:02.480Z,15.90
2022-09-15T11:27:36.585Z,15.90
2022-09-15T11:30:08.631Z,15.90
2022-09-15T11:32:42.566Z,15.90
2022-09-15T11:35:35.585Z,15.90
2022-09-15T11:38:22.404Z,15.90
2022-09-15T11:40:57.660Z,15.90
2022-09-15T11:43:33.894Z,15.80
2022-09-15T11:46:11.293Z,15.80
2022-09-15T11:48:45.807Z,15.70
2022-09-15T11:51:17.642Z,15.70
2022-09-15T11:53:52.757Z,15.70
2022-09-15T11:56:27.439Z,15.70
2022-09-15T11:59:05.642Z,15.70
2022-09-15T12:01:40.036Z,15.70
2022-09-15T12:04:13.994Z,15.70
2022-09-15T12:06:49.189Z,15.70
2022-09-15T12:09:21.454Z,15.60
2022-09-15T12:11:53.608Z,15.60
2022-09-15T12:14:29.334Z,15.60
2022-09-15T12:16:59.112Z,15.60
2022-09-15T12:19:50.770Z,15.60
2022-09-15T12:22:24.997Z,15.50
2022-09-15T12:25:01.326Z,15.40
2022-09-15T12:27:30.669Z,15.40
2022-09-15T12:30:01.130Z,15.40
2022-09-15T12:32:31.035Z,15.40
2022-09-15T12:35:02.241Z,15.40
2022-09-15T12:37:37.392Z,15.40
2022-09-15T12:40:26.350Z,15.50
2022-09-15T12:42:55.267Z,15.40
2022-09-15T12:45:27.247Z,15.40
2022-09-15T12:47:57.744Z,15.40
2022-09-15T12:50:34.269Z,15.40
2022-09-15T12:53:13.082Z,15.40
2022-09-15T12:55:50.137Z,15.40
2022-09-15T12:58:22.102Z,15.50
2022-09-15T13:01:14.320Z,15.40
2022-09-15T13:04:14.047Z,15.50
2022-09-15T13:07:21.392Z,15.50
2022-09-15T13:09:58.829Z,15.50
2022-09-15T13:12:35.155Z,15.50
2022-09-15T13:15:07.938Z,15.50
2022-09-15T13:17:37.261Z,15.50
2022-09-15T13:20:15.562Z,15.50
2022-09-15T13:22:48.396Z,15.50
2022-09-15T13:25:20.728Z,15.50
2022-09-15T13:27:53.428Z,15.50
2022-09-15T13:30:37.598Z,15.50
2022-09-15T13:33:18.387Z,15.50
2022-09-15T13:36:00.988Z,15.60
2022-09-15T13:38:51.910Z,15.60
2022-09-15T13:41:42.847Z,15.70
2022-09-15T13:44:29.815Z,15.80
2022-09-15T13:47:11.004Z,16.10
2022-09-15T13:49:51.901Z,16.30
2022-09-15T13:52:33.936Z,16.40
2022-09-15T13:55:10.633Z,16.40
2022-09-15T14:00:34.199Z,16.50
2022-09-15T14:03:06.405Z,16.50
2022-09-15T14:05:36.921Z,16.60
2022-09-15T14:08:09.661Z,16.60
2022-09-15T14:10:46.331Z,16.60
2022-09-15T14:13:17.545Z,16.60
2022-09-15T14:15:59.944Z,16.70
2022-09-15T14:18:29.089Z,16.90
2022-09-15T14:21:05.081Z,17.00
2022-09-15T14:23:34.664Z,17.20
2022-09-15T14:26:03.800Z,17.40
2022-09-15T14:28:33.821Z,17.40
2022-09-15T14:31:03.907Z,17.40
2022-09-15T14:33:38.130Z,17.40
2022-09-15T14:36:23.389Z,17.30
2022-09-15T14:39:18.898Z,17.20
2022-09-15T14:41:48.279Z,17.30
2022-09-15T14:47:22.183Z,17.10
2022-09-15T14:49:50.780Z,17.00
2022-09-15T14:52:27.133Z,17.00
2022-09-15T14:55:01.108Z,16.90
2022-09-15T14:57:32.720Z,16.80
2022-09-15T15:00:07.014Z,16.70
2022-09-15T15:02:50.156Z,16.60
2022-09-15T15:05:23.011Z,16.60
2022-09-15T15:07:52.790Z,16.70
2022-09-15T15:10:23.843Z,16.70
2022-09-15T15:12:56.188Z,16.90
2022-09-15T15:15:24.933Z,17.00
2022-09-15T15:17:55.477Z,17.10
2022-09-15T15:20:27.034Z,17.20
2022-09-15T15:23:12.985Z,17.30
2022-09-15T15:25:42.470Z,17.40
2022-09-15T15:28:32.915Z,17.30
2022-09-15T15:31:23.558Z,17.30
2022-09-15T15:33:59.119Z,17.20
2022-09-15T15:36:29.600Z,17.20
2022-09-15T15:38:59.765Z,17.10
2022-09-15T15:41:31.032Z,17.00
2022-09-15T15:44:03.315Z,16.90
2022-09-15T15:46:57.171Z,16.80
2022-09-15T15:49:29.283Z,16.80
2022-09-15T15:51:58.714Z,16.70
2022-09-15T15:54:27.693Z,16.60
2022-09-15T15:56:56.888Z,16.50
2022-09-15T15:59:25.430Z,16.50
2022-09-15T16:01:54.169Z,16.40
2022-09-15T16:04:22.918Z,16.40
2022-09-15T16:06:53.649Z,16.30
2022-09-15T16:09:22.234Z,16.30
2022-09-15T16:11:51.234Z,16.30
2022-09-15T16:14:19.893Z,16.30
2022-09-15T16:16:48.448Z,16.20
2022-09-15T16:19:17.040Z,16.10
2022-09-15T16:21:45.763Z,16.20
2022-09-15T16:24:16.609Z,16.10
2022-09-15T16:26:45.270Z,16.10
2022-09-15T16:29:14.155Z,16.10
2022-09-15T16:31:43.565Z,16.10
2022-09-15T16:34:17.596Z,16.10
2022-09-15T16:36:46.534Z,16.10
2022-09-15T16:39:16.448Z,16.10
2022-09-15T16:41:45.072Z,16.00
2022-09-15T16:44:19.206Z,16.00
2022-09-15T16:46:47.919Z,16.00
2022-09-15T16:49:16.556Z,15.90
2022-09-15T16:51:45.196Z,15.90
2022-09-15T16:54:17.745Z,15.80
2022-09-15T16:56:46.793Z,15.80
2022-09-15T16:59:15.694Z,15.70
2022-09-15T17:01:44.300Z,15.70
2022-09-15T17:04:16.516Z,15.60
2022-09-15T17:06:45.160Z,15.50
2022-09-15T17:09:13.757Z,15.40
2022-09-15T17:11:43.701Z,15.30
2022-09-15T17:14:16.165Z,15.30
2022-09-15T17:16:47.318Z,15.20
2022-09-15T17:19:15.932Z,15.20
2022-09-15T17:21:44.561Z,15.10
2022-09-15T17:24:13.118Z,15.10
2022-09-15T17:26:43.087Z,15.00
2022-09-15T17:29:11.651Z,15.00
2022-09-15T17:31:40.266Z,15.00
2022-09-15T17:34:14.174Z,14.90
2022-09-15T17:36:42.827Z,14.90
2022-09-15T17:39:11.482Z,14.80
2022-09-15T17:41:40.133Z,14.80
2022-09-15T17:44:11.960Z,14.80
2022-09-15T17:46:40.686Z,14.70
2022-09-15T17:49:09.442Z,14.70
2022-09-15T17:51:38.058Z,14.70
2022-09-15T17:54:07.448Z,14.60
2022-09-15T17:56:36.446Z,14.60
2022-09-15T17:59:05.202Z,14.60
2022-09-15T18:01:35.207Z,14.50
2022-09-15T18:04:04.260Z,14.50
2022-09-15T18:06:32.952Z,14.50
2022-09-15T18:09:01.534Z,14.40
2022-09-15T18:11:30.197Z,14.40
2022-09-15T18:13:58.863Z,14.30
2022-09-15T18:16:27.515Z,14.30
2022-09-15T18:18:57.451Z,14.20
2022-09-15T18:21:29.113Z,14.10
2022-09-15T18:23:58.531Z,14.20
2022-09-15T18:26:27.188Z,14.10
2022-09-15T18:28:56.917Z,14.00
2022-09-15T18:31:25.509Z,14.00
2022-09-15T18:33:54.306Z,13.90
2022-09-15T18:36:24.515Z,13.90
2022-09-15T18:38:53.253Z,13.80
2022-09-15T18:41:21.924Z,13.80
2022-09-15T18:43:50.532Z,13.70
2022-09-15T18:46:20.370Z,13.70
2022-09-15T18:48:49.028Z,13.70
2022-09-15T18:51:24.070Z,13.60
2022-09-15T18:53:59.819Z,13.60
2022-09-15T18:56:28.876Z,13.60
2022-09-15T18:58:57.697Z,13.50
2022-09-15T19:01:26.450Z,13.50
2022-09-15T19:03:55.316Z,13.50
2022-09-15T19:06:23.994Z,13.50
2022-09-15T19:08:52.724Z,13.40
2022-09-15T19:11:22.867Z,13.40
2022-09-15T19:13:53.735Z,13.40
2022-09-15T19:16:34.712Z,13.40
2022-09-15T19:19:11.962Z,13.30
2022-09-15T19:21:40.505Z,13.30
2022-09-15T19:24:09.142Z,13.30
2022-09-15T19:26:39.290Z,13.30
2022-09-15T19:29:07.845Z,13.30
2022-09-15T19:31:41.667Z,13.30
2022-09-15T19:34:10.867Z,13.20
2022-09-15T19:36:39.640Z,13.20
2022-09-15T19:39:08.248Z,13.20
2022-09-15T19:41:38.481Z,13.10
2022-09-15T19:44:10.592Z,13.10
2022-09-15T19:46:39.595Z,13.10
2022-09-15T19:49:08.862Z,13.10
2022-09-15T19:51:37.560Z,13.00
2022-09-15T19:54:06.990Z,13.00
2022-09-15T19:56:36.482Z,13.00
2022-09-15T19:59:07.199Z,13.00
2022-09-15T20:01:35.938Z,13.00
2022-09-15T20:04:05.620Z,12.90
2022-09-15T20:06:34.276Z,12.90
2022-09-15T20:09:03.410Z,12.80
2022-09-15T20:11:33.023Z,12.90
2022-09-15T20:14:01.858Z,12.90
2022-09-15T20:16:32.126Z,12.80
2022-09-15T20:19:00.980Z,12.80
2022-09-15T20:21:49.197Z,12.80
2022-09-15T20:24:20.196Z,12.90
2022-09-15T20:26:49.304Z,12.80
2022-09-15T20:29:18.749Z,12.80
2022-09-15T20:31:49.451Z,12.90
2022-09-15T20:34:19.114Z,12.80
2022-09-15T20:36:47.917Z,12.90
2022-09-15T20:39:19.387Z,12.80
2022-09-15T20:41:48.026Z,12.80
2022-09-15T20:44:16.946Z,12.80
2022-09-15T20:46:45.499Z,12.80
2022-09-15T20:49:15.820Z,12.80
2022-09-15T20:51:45.167Z,12.80
2022-09-15T20:54:13.801Z,12.80
2022-09-15T20:56:42.443Z,12.80
2022-09-15T20:59:15.135Z,12.70
2022-09-15T21:01:44.409Z,12.70
2022-09-15T21:04:13.396Z,12.70
2022-09-15T21:06:43.337Z,12.70
2022-09-15T21:09:12.358Z,12.70
2022-09-15T21:11:43.228Z,12.60
2022-09-15T21:14:14.291Z,12.60
2022-09-15T21:16:43.375Z,12.60
2022-09-15T21:19:12.948Z,12.60
2022-09-15T21:21:42.880Z,12.60
2022-09-15T21:24:11.523Z,12.50
2022-09-15T21:27:02.072Z,12.50
2022-09-15T21:29:31.540Z,12.50
2022-09-15T21:32:00.249Z,12.50
2022-09-15T21:34:28.999Z,12.40
2022-09-15T21:36:58.959Z,12.40
2022-09-15T21:39:27.993Z,12.40
2022-09-15T21:41:56.576Z,12.40
2022-09-15T21:44:25.165Z,12.40
2022-09-15T21:46:54.760Z,12.40
2022-09-15T21:49:23.319Z,12.40
2022-09-15T21:51:52.267Z,12.40
2022-09-15T21:54:22.802Z,12.40
2022-09-15T21:56:51.672Z,12.30
2022-09-15T21:59:20.272Z,12.40
2022-09-15T22:01:49.522Z,12.30
2022-09-15T22:04:18.106Z,12.30
2022-09-15T22:06:47.353Z,12.30
2022-09-15T22:09:17.925Z,12.30
2022-09-15T22:11:48.303Z,12.30
2022-09-15T22:14:16.902Z,12.30
2022-09-15T22:16:45.750Z,12.30
2022-09-15T22:19:14.371Z,12.30
2022-09-15T22:21:42.962Z,12.20
2022-09-15T22:24:13.713Z,12.20
2022-09-15T22:26:43.399Z,12.20
2022-09-15T22:29:13.440Z,12.20
2022-09-15T22:31:42.318Z,12.20
2022-09-15T22:34:11.087Z,12.20
2022-09-15T22:36:39.712Z,12.20
2022-09-15T22:39:08.344Z,12.30
2022-09-15T22:41:38.417Z,12.30
2022-09-15T22:44:08.033Z,12.30
2022-09-15T22:46:38.036Z,12.30
2022-09-15T22:49:06.736Z,12.30
2022-09-15T22:51:35.303Z,12.40
2022-09-15T22:54:03.859Z,12.40
2022-09-15T22:56:32.633Z,12.40
2022-09-15T22:59:01.428Z,12.40
2022-09-15T23:01:32.024Z,12.50
2022-09-15T23:04:03.466Z,12.50
2022-09-15T23:06:33.779Z,12.60
2022-09-15T23:09:05.394Z,12.60
2022-09-15T23:11:34.505Z,12.60
2022-09-15T23:14:03.347Z,12.60
2022-09-15T23:16:32.297Z,12.80
2022-09-15T23:19:02.541Z,12.80
2022-09-15T23:21:31.202Z,12.80
2022-09-15T23:24:00.333Z,12.80
2022-09-15T23:26:29.063Z,12.80
2022-09-15T23:28:57.689Z,12.90
2022-09-15T23:31:26.407Z,12.90
2022-09-15T23:33:55.094Z,12.90
2022-09-15T23:36:24.996Z,12.90
2022-09-15T23:38:53.679Z,12.90
2022-09-15T23:41:22.472Z,12.90
2022-09-15T23:43:51.299Z,12.90
2022-09-15T23:46:19.959Z,13.00
2022-09-15T23:48:48.737Z,13.00
2022-09-15T23:51:17.545Z,13.00
2022-09-15T23:53:47.579Z,13.00
2022-09-15T23:56:16.368Z,13.00
2022-09-15T23:58:45.068Z,13.00
